createdAt,value
2022-09-28T00:00:04.730Z,11.57
2022-09-28T00:04:13.741Z,11.54
2022-09-28T00:08:15.233Z,11.56
2022-09-28T00:12:16.777Z,11.54
2022-09-28T00:16:22.514Z,11.53
2022-09-28T00:20:24.150Z,11.51
2022-09-28T00:24:27.780Z,11.51
2022-09-28T00:28:29.746Z,11.53
2022-09-28T00:32:31.310Z,11.51
2022-09-28T00:36:33.533Z,11.53
2022-09-28T00:40:35.261Z,11.53
2022-09-28T00:44:48.503Z,11.53
2022-09-28T00:48:59.236Z,11.48
2022-09-28T00:53:07.813Z,11.49
2022-09-28T00:57:09.617Z,11.51
2022-09-28T01:01:12.414Z,11.49
2022-09-28T01:05:15.053Z,11.49
2022-09-28T01:09:18.266Z,11.51
2022-09-28T01:13:22.074Z,11.53
2022-09-28T01:17:38.490Z,11.49
2022-09-28T01:21:56.006Z,11.48
2022-09-28T01:26:41.816Z,11.48
2022-09-28T01:30:58.487Z,11.45
2022-09-28T01:35:35.981Z,11.42
2022-09-28T01:39:42.610Z,11.39
2022-09-28T01:43:54.489Z,11.38
2022-09-28T01:47:59.982Z,11.35
2022-09-28T01:52:22.802Z,11.38
2022-09-28T01:56:49.769Z,11.41
2022-09-28T02:01:00.723Z,11.39
2022-09-28T02:05:20.388Z,11.41
2022-09-28T02:09:34.056Z,11.41
2022-09-28T02:13:53.846Z,11.39
2022-09-28T02:17:55.394Z,11.42
2022-09-28T02:22:10.342Z,11.42
2022-09-28T02:26:16.999Z,11.45
2022-09-28T02:30:18.863Z,11.45
2022-09-28T02:34:20.652Z,11.46
2022-09-28T02:38:22.398Z,11.45
2022-09-28T02:42:29.229Z,11.45
2022-09-28T02:46:58.243Z,11.41
2022-09-28T02:51:17.823Z,11.39
2022-09-28T02:55:26.975Z,11.39
2022-09-28T02:59:46.960Z,11.36
2022-09-28T03:03:55.396Z,11.36
2022-09-28T03:08:03.438Z,11.33
2022-09-28T03:12:10.938Z,11.36
2022-09-28T03:16:15.614Z,11.35
2022-09-28T03:20:19.738Z,11.31
2022-09-28T03:24:21.491Z,11.28
2022-09-28T03:28:23.382Z,11.30
2022-09-28T03:32:25.583Z,11.30
2022-09-28T03:36:27.331Z,11.24
2022-09-28T03:40:29.150Z,11.21
2022-09-28T03:44:30.793Z,11.20
2022-09-28T03:48:34.616Z,11.20
2022-09-28T03:52:36.135Z,11.19
2022-09-28T03:56:37.680Z,11.19
2022-09-28T04:00:39.448Z,11.21
2022-09-28T04:04:41.019Z,11.19
2022-09-28T04:08:43.353Z,11.21
2022-09-28T04:12:45.924Z,11.24
2022-09-28T04:16:52.066Z,11.26
2022-09-28T04:21:11.179Z,11.27
2022-09-28T04:25:19.334Z,11.27
2022-09-28T04:29:21.162Z,11.26
2022-09-28T04:33:32.233Z,11.20
2022-09-28T04:37:33.811Z,11.13
2022-09-28T04:41:36.919Z,11.13
2022-09-28T04:45:38.502Z,11.13
2022-09-28T04:49:45.150Z,11.08
2022-09-28T04:53:52.910Z,11.03
2022-09-28T04:57:55.804Z,11.03
2022-09-28T05:01:57.718Z,11.01
2022-09-28T05:06:15.710Z,11.02
2022-09-28T05:10:23.523Z,10.99
2022-09-28T05:14:25.618Z,11.01
2022-09-28T05:18:27.401Z,10.98
2022-09-28T05:22:36.728Z,10.98
2022-09-28T05:26:39.951Z,10.98
2022-09-28T05:30:43.887Z,10.98
2022-09-28T05:35:12.175Z,11.01
2022-09-28T05:39:20.238Z,11.01
2022-09-28T05:43:22.661Z,11.02
2022-09-28T05:47:25.845Z,11.01
2022-09-28T05:51:27.523Z,11.01
2022-09-28T05:55:30.058Z,10.98
2022-09-28T05:59:31.862Z,10.98
2022-09-28T06:03:33.523Z,10.98
2022-09-28T06:07:35.459Z,10.98
2022-09-28T06:11:37.024Z,10.99
2022-09-28T06:15:46.331Z,11.02
2022-09-28T06:19:48.791Z,11.06
2022-09-28T06:24:22.559Z,11.06
2022-09-28T06:28:24.818Z,11.05
2022-09-28T06:32:29.176Z,11.05
2022-09-28T06:36:31.327Z,11.03
2022-09-28T06:40:34.164Z,11.05
2022-09-28T06:44:36.253Z,11.06
2022-09-28T06:48:58.540Z,11.12
2022-09-28T06:53:20.141Z,11.17
2022-09-28T06:57:36.829Z,11.21
2022-09-28T07:01:39.254Z,11.23
2022-09-28T07:05:50.241Z,11.27
2022-09-28T07:10:11.481Z,11.31
2022-09-28T07:14:47.252Z,11.31
2022-09-28T07:18:49.847Z,11.35
2022-09-28T07:23:15.416Z,11.38
2022-09-28T07:27:59.606Z,11.42
2022-09-28T07:32:28.585Z,11.51
2022-09-28T07:36:51.870Z,11.60
2022-09-28T07:41:11.772Z,11.66
2022-09-28T07:45:20.666Z,11.78
2022-09-28T07:49:23.673Z,11.87
2022-09-28T07:53:54.367Z,11.93
2022-09-28T07:58:28.426Z,12.01
2022-09-28T08:02:55.535Z,12.11
2022-09-28T08:07:00.271Z,12.23
2022-09-28T08:11:02.939Z,12.33
2022-09-28T08:15:39.788Z,12.34
2022-09-28T08:20:09.348Z,12.54
2022-09-28T08:24:12.593Z,12.77
2022-09-28T08:28:16.117Z,12.80
2022-09-28T08:32:21.436Z,12.88
2022-09-28T08:36:45.831Z,12.96
2022-09-28T08:41:35.172Z,12.99
2022-09-28T08:45:45.132Z,13.03
2022-09-28T08:50:24.531Z,13.10
2022-09-28T08:54:48.708Z,13.27
2022-09-28T08:59:05.379Z,13.51
2022-09-28T09:03:12.136Z,13.54
2022-09-28T09:07:57.338Z,13.63
2022-09-28T09:12:18.551Z,13.88
2022-09-28T09:17:00.328Z,13.96
2022-09-28T09:21:33.767Z,14.06
2022-09-28T09:25:48.716Z,14.06
2022-09-28T09:30:04.676Z,14.02
2022-09-28T09:34:33.510Z,14.08
2022-09-28T09:39:05.598Z,13.91
2022-09-28T09:43:58.850Z,13.96
2022-09-28T09:48:25.306Z,13.99
2022-09-28T09:56:47.640Z,14.13
2022-09-28T10:01:10.826Z,14.12
2022-09-28T10:05:39.535Z,13.98
2022-09-28T10:09:45.875Z,13.96
2022-09-28T10:14:08.596Z,13.93
2022-09-28T10:18:16.506Z,14.04
2022-09-28T10:22:38.562Z,14.19
2022-09-28T10:26:50.324Z,14.24
2022-09-28T10:30:52.871Z,14.29
2022-09-28T10:35:12.687Z,14.36
2022-09-28T10:39:40.348Z,14.42
2022-09-28T10:44:10.606Z,14.36
2022-09-28T10:48:22.231Z,14.38
2022-09-28T10:52:32.942Z,14.42
2022-09-28T10:56:40.045Z,14.53
2022-09-28T11:00:44.797Z,14.59
2022-09-28T11:04:55.450Z,14.66
2022-09-28T11:09:00.735Z,14.80
2022-09-28T11:13:03.476Z,14.87
2022-09-28T11:17:38.765Z,15.11
2022-09-28T11:21:43.392Z,15.22
2022-09-28T11:26:07.134Z,15.31
2022-09-28T11:30:27.116Z,15.27
2022-09-28T11:35:00.077Z,15.09
2022-09-28T11:39:25.223Z,15.04
2022-09-28T11:43:41.042Z,15.30
2022-09-28T11:47:57.267Z,15.46
2022-09-28T11:52:03.194Z,15.73
2022-09-28T11:56:16.950Z,15.85
2022-09-28T12:00:25.028Z,15.92
2022-09-28T12:04:39.741Z,15.96
2022-09-28T12:09:06.333Z,16.30
2022-09-28T12:13:28.013Z,16.55
2022-09-28T12:17:38.772Z,16.82
2022-09-28T12:21:51.344Z,16.95
2022-09-28T12:26:02.127Z,17.00
2022-09-28T12:30:16.489Z,16.92
2022-09-28T12:34:18.430Z,16.78
2022-09-28T12:39:30.971Z,16.57
2022-09-28T12:44:06.487Z,16.40
2022-09-28T12:48:20.628Z,16.62
2022-09-28T12:52:51.486Z,16.77
2022-09-28T12:57:20.747Z,16.75
2022-09-28T13:01:25.148Z,16.62
2022-09-28T13:05:45.601Z,16.55
2022-09-28T13:10:18.767Z,16.57
2022-09-28T13:14:57.989Z,16.60
2022-09-28T13:19:16.888Z,16.95
2022-09-28T13:23:25.674Z,17.30
2022-09-28T13:27:35.320Z,17.62
2022-09-28T13:31:45.441Z,17.63
2022-09-28T13:35:47.010Z,17.66
2022-09-28T13:39:52.211Z,17.87
2022-09-28T13:44:12.345Z,17.53
2022-09-28T13:48:16.921Z,17.05
2022-09-28T13:52:45.294Z,16.82
2022-09-28T13:57:02.470Z,16.63
2022-09-28T14:01:12.506Z,16.41
2022-09-28T14:05:23.272Z,16.44
2022-09-28T14:09:38.985Z,16.44
2022-09-28T14:13:43.588Z,16.30
2022-09-28T14:17:53.516Z,16.27
2022-09-28T14:21:58.156Z,16.27
2022-09-28T14:26:13.121Z,16.25
2022-09-28T14:30:14.617Z,16.22
2022-09-28T14:34:47.052Z,16.22
2022-09-28T14:39:08.697Z,16.42
2022-09-28T14:43:45.316Z,16.36
2022-09-28T14:48:13.419Z,16.33
2022-09-28T14:52:34.926Z,16.27
2022-09-28T14:56:53.773Z,16.17
2022-09-28T15:01:05.208Z,16.25
2022-09-28T15:05:06.785Z,16.29
2022-09-28T15:09:27.037Z,16.17
2022-09-28T15:13:29.986Z,16.07
2022-09-28T15:17:39.272Z,15.99
2022-09-28T15:21:43.101Z,15.91
2022-09-28T15:25:51.954Z,15.84
2022-09-28T15:30:00.917Z,15.84
2022-09-28T15:34:20.965Z,15.89
2022-09-28T15:38:22.685Z,15.84
2022-09-28T15:42:24.714Z,15.80
2022-09-28T15:46:28.537Z,15.80
2022-09-28T15:50:32.998Z,15.80
2022-09-28T15:54:44.967Z,15.78
2022-09-28T15:59:23.057Z,15.74
2022-09-28T16:03:31.132Z,15.67
2022-09-28T16:07:40.820Z,15.62
2022-09-28T16:11:42.326Z,15.60
2022-09-28T16:15:44.234Z,15.58
2022-09-28T16:19:48.537Z,15.51
2022-09-28T16:23:58.086Z,15.49
2022-09-28T16:28:00.526Z,15.44
2022-09-28T16:32:33.344Z,15.41
2022-09-28T16:36:46.971Z,15.38
2022-09-28T16:40:50.750Z,15.35
2022-09-28T16:44:52.303Z,15.30
2022-09-28T16:48:55.264Z,15.16
2022-09-28T16:53:29.683Z,15.04
2022-09-28T16:57:31.180Z,14.91
2022-09-28T17:01:32.901Z,14.82
2022-09-28T17:05:34.424Z,14.74
2022-09-28T17:09:35.955Z,14.71
2022-09-28T17:13:37.477Z,14.69
2022-09-28T17:17:40.407Z,14.66
2022-09-28T17:21:42.167Z,14.63
2022-09-28T17:25:44.689Z,14.63
2022-09-28T17:29:46.610Z,14.63
2022-09-28T17:33:48.109Z,14.57
2022-09-28T17:37:49.603Z,14.52
2022-09-28T17:41:51.204Z,14.48
2022-09-28T17:45:52.850Z,14.42
2022-09-28T17:49:54.386Z,14.35
2022-09-28T17:53:57.929Z,14.34
2022-09-28T17:58:15.544Z,14.30
2022-09-28T18:02:17.092Z,14.24
2022-09-28T18:06:23.661Z,14.21
2022-09-28T18:10:26.319Z,14.12
2022-09-28T18:14:28.491Z,14.05
2022-09-28T18:18:30.920Z,13.96
2022-09-28T18:22:32.465Z,13.88
2022-09-28T18:26:33.995Z,13.86
2022-09-28T18:30:39.856Z,13.79
2022-09-28T18:34:41.408Z,13.71
2022-09-28T18:38:42.977Z,13.66
2022-09-28T18:42:44.431Z,13.65
2022-09-28T18:46:46.067Z,13.63
2022-09-28T18:50:47.901Z,13.63
2022-09-28T18:54:50.629Z,13.65
2022-09-28T18:58:52.576Z,13.69
2022-09-28T19:02:54.742Z,13.71
2022-09-28T19:06:56.676Z,13.71
2022-09-28T19:11:15.643Z,13.69
2022-09-28T19:15:18.485Z,13.63
2022-09-28T19:19:20.583Z,13.62
2022-09-28T19:23:24.494Z,13.55
2022-09-28T19:27:26.293Z,13.48
2022-09-28T19:31:28.978Z,13.43
2022-09-28T19:35:30.571Z,13.35
2022-09-28T19:39:32.243Z,13.29
2022-09-28T19:43:34.824Z,13.24
2022-09-28T19:47:37.400Z,13.14
2022-09-28T19:51:51.510Z,13.09
2022-09-28T19:56:05.037Z,13.07
2022-09-28T20:00:07.473Z,13.06
2022-09-28T20:04:09.740Z,12.99
2022-09-28T20:08:12.611Z,12.98
2022-09-28T20:12:14.480Z,12.94
2022-09-28T20:16:18.823Z,12.85
2022-09-28T20:20:20.390Z,12.84
2022-09-28T20:24:21.910Z,12.81
2022-09-28T20:28:23.923Z,12.77
2022-09-28T20:32:25.659Z,12.76
2022-09-28T20:36:27.299Z,12.70
2022-09-28T20:40:29.277Z,12.61
2022-09-28T20:44:31.184Z,12.55
2022-09-28T20:48:33.142Z,12.52
2022-09-28T20:52:34.728Z,12.51
2022-09-28T20:56:38.612Z,12.46
2022-09-28T21:00:40.138Z,12.43
2022-09-28T21:04:42.132Z,12.34
2022-09-28T21:08:44.769Z,12.30
2022-09-28T21:12:52.953Z,12.31
2022-09-28T21:16:54.537Z,12.29
2022-09-28T21:20:56.677Z,12.26
2022-09-28T21:24:58.349Z,12.23
2022-09-28T21:29:02.475Z,12.21
2022-09-28T21:33:04.022Z,12.22
2022-09-28T21:37:05.581Z,12.22
2022-09-28T21:41:07.312Z,12.22
2022-09-28T21:45:09.008Z,12.21
2022-09-28T21:49:12.249Z,12.19
2022-09-28T21:53:13.736Z,12.16
2022-09-28T21:57:15.286Z,12.12
2022-09-28T22:01:19.649Z,12.11
2022-09-28T22:05:21.203Z,12.04
2022-09-28T22:09:22.718Z,11.97
2022-09-28T22:13:24.162Z,11.94
2022-09-28T22:17:25.688Z,11.93
2022-09-28T22:21:29.766Z,11.87
2022-09-28T22:25:31.276Z,11.79
2022-09-28T22:29:32.896Z,11.77
2022-09-28T22:33:34.528Z,11.74
2022-09-28T22:37:36.011Z,11.66
2022-09-28T22:41:37.521Z,11.60
2022-09-28T22:45:39.039Z,11.56
2022-09-28T22:49:40.620Z,11.51
2022-09-28T22:53:42.914Z,11.49
2022-09-28T22:57:44.417Z,11.45
2022-09-28T23:01:45.920Z,11.45
2022-09-28T23:05:54.594Z,11.42
2022-09-28T23:09:58.221Z,11.39
2022-09-28T23:14:00.312Z,11.33
2022-09-28T23:18:01.800Z,11.28
2022-09-28T23:22:03.362Z,11.30
2022-09-28T23:26:19.731Z,11.35
2022-09-28T23:30:21.729Z,11.31
2022-09-28T23:34:23.215Z,11.27
2022-09-28T23:38:26.291Z,11.26
2022-09-28T23:42:27.779Z,11.26
2022-09-28T23:46:29.352Z,11.28
2022-09-28T23:50:30.883Z,11.35
2022-09-28T23:54:32.440Z,11.33
2022-09-28T23:58:33.930Z,11.35
